Metar z połowy godziny Komunikat METAR ze strony awiacja.imgw.pl Metar G30 EPZG METAR EPZG 231230Z 27006KT 230V310 CAVOK 22/13 Q1011 =